Time;durP1;ratioP1;P1;durP2;ratioP2;P2;SDS_P1;SDS_P2;PMS_P1;PMS_P2;Temp;Humidity;BMP_temperature;BMP_pressure;BME280_temperature;BME280_humidity;BME280_pressure;Samples;Min_cycle;Max_cycle;Signal;HPM_P1;HPM_P2
2022/04/02 00:01:54;;;;;;;1.20;1.00;;;-4.10;73.50;;;;;;4977345;28;20035;-74
2022/04/02 00:04:20;;;;;;;0.90;0.90;;;-4.20;73.30;;;;;;4977181;28;20053;-75
2022/04/02 00:06:46;;;;;;;0.93;0.88;;;-4.30;73.00;;;;;;4976986;28;20061;-75
2022/04/02 00:09:12;;;;;;;3.35;1.13;;;-4.30;73.00;;;;;;4977170;28;20059;-75
2022/04/02 00:11:38;;;;;;;1.83;0.88;;;-4.40;73.20;;;;;;4976870;28;20454;-76
2022/04/02 00:14:03;;;;;;;1.52;1.00;;;-4.50;73.30;;;;;;4976792;28;20054;-75
2022/04/02 00:16:29;;;;;;;1.20;0.98;;;-4.50;73.40;;;;;;4976717;28;20015;-75
2022/04/02 00:18:55;;;;;;;1.17;0.98;;;-4.50;73.40;;;;;;4976740;28;20039;-76
2022/04/02 00:21:20;;;;;;;2.63;1.00;;;-4.50;73.60;;;;;;4976825;28;20030;-76
2022/04/02 00:23:46;;;;;;;4.47;1.10;;;-4.60;73.60;;;;;;4976916;28;20031;-76
2022/04/02 00:26:19;;;;;;;1.65;1.00;;;-4.60;73.70;;;;;;4976821;28;20035;-76
2022/04/02 00:28:45;;;;;;;1.65;1.13;;;-4.60;74.00;;;;;;4976638;28;20532;-75
2022/04/02 00:31:12;;;;;;;2.15;1.08;;;-4.60;74.00;;;;;;4976448;28;20110;-74
2022/04/02 00:33:39;;;;;;;1.10;1.00;;;-4.60;74.00;;;;;;4976784;28;20062;-74
2022/04/02 00:36:05;;;;;;;4.53;1.20;;;-4.60;74.20;;;;;;4976404;28;20030;-73
2022/04/02 00:38:31;;;;;;;0.80;0.80;;;-4.50;74.50;;;;;;4976025;28;20130;-74
2022/04/02 00:40:57;;;;;;;11.00;1.05;;;-4.50;74.80;;;;;;4976390;28;20117;-74
2022/04/02 00:43:46;;;;;;;7.10;1.42;;;-4.50;75.00;;;;;;4976094;28;20073;-74
2022/04/02 00:46:12;;;;;;;1.83;1.08;;;-4.60;75.40;;;;;;4965554;28;20038;-74
2022/04/02 00:48:40;;;;;;;1.80;1.05;;;-4.70;75.60;;;;;;4976191;28;20030;-74
2022/04/02 00:51:07;;;;;;;1.65;1.00;;;-4.80;75.10;;;;;;4976366;28;20434;-73
2022/04/02 00:53:36;;;;;;;1.75;1.08;;;-4.90;75.00;;;;;;4976293;28;20111;-75
2022/04/02 00:56:03;;;;;;;1.80;0.90;;;-5.00;74.90;;;;;;4976316;28;20052;-75
2022/04/02 00:58:29;;;;;;;1.05;0.98;;;-5.00;74.90;;;;;;4975739;28;20035;-74
2022/04/02 01:00:55;;;;;;;1.52;0.90;;;-5.10;75.30;;;;;;4976495;28;20041;-70
2022/04/02 01:03:21;;;;;;;1.48;1.20;;;-5.10;75.10;;;;;;4975722;28;20074;-70
2022/04/02 01:05:48;;;;;;;1.40;1.08;;;-5.10;75.00;;;;;;4976122;28;20409;-70
2022/04/02 01:08:14;;;;;;;2.80;1.10;;;-5.10;75.20;;;;;;4975641;28;20023;-70
2022/04/02 01:10:40;;;;;;;1.85;1.00;;;-5.10;75.40;;;;;;4975455;28;20022;-70
2022/04/02 01:13:07;;;;;;;2.15;1.08;;;-5.10;75.50;;;;;;4975666;28;20031;-70
2022/04/02 01:15:33;;;;;;;1.95;1.02;;;-5.10;75.30;;;;;;4975501;28;20042;-71
2022/04/02 01:17:59;;;;;;;1.10;1.00;;;-5.20;75.20;;;;;;4975906;28;20022;-71
2022/04/02 01:20:27;;;;;;;0.80;0.80;;;-5.20;75.10;;;;;;4975467;28;20439;-71
2022/04/02 01:22:54;;;;;;;2.28;1.20;;;-5.30;75.40;;;;;;4975896;28;20027;-71
2022/04/02 01:25:19;;;;;;;0.93;0.85;;;-5.30;75.50;;;;;;4975489;28;20154;-71
2022/04/02 01:27:47;;;;;;;0.90;0.90;;;-5.30;75.30;;;;;;4975872;28;20062;-71
2022/04/02 01:30:14;;;;;;;1.25;1.08;;;-5.30;75.30;;;;;;4975407;28;20122;-71
2022/04/02 01:32:41;;;;;;;1.15;0.90;;;-5.40;75.00;;;;;;4975474;28;20035;-71
2022/04/02 01:35:08;;;;;;;0.90;0.88;;;-5.40;75.40;;;;;;4975804;28;20561;-70
2022/04/02 01:37:35;;;;;;;0.88;0.80;;;-5.40;75.60;;;;;;4974892;28;20043;-71
2022/04/02 01:40:05;;;;;;;2.00;1.05;;;-5.40;75.90;;;;;;4975160;28;20047;-72
2022/04/02 01:42:31;;;;;;;2.20;1.33;;;-5.40;76.10;;;;;;4975194;28;20038;-72
2022/04/02 01:44:57;;;;;;;0.77;0.77;;;-5.40;76.30;;;;;;4975539;28;20035;-71
2022/04/02 01:47:22;;;;;;;1.33;0.98;;;-5.50;76.60;;;;;;4974928;28;20070;-70
2022/04/02 01:49:48;;;;;;;2.25;1.17;;;-5.50;76.60;;;;;;4975180;28;20026;-71
2022/04/02 01:52:17;;;;;;;1.38;0.98;;;-5.50;76.60;;;;;;4975233;28;20069;-71
2022/04/02 01:54:49;;;;;;;0.80;0.80;;;-5.50;76.70;;;;;;4974995;28;20038;-70
2022/04/02 01:57:16;;;;;;;1.90;0.98;;;-5.50;76.80;;;;;;4974835;28;20069;-69
2022/04/02 01:59:44;;;;;;;1.73;1.10;;;-5.50;76.90;;;;;;4974907;28;20039;-69
2022/04/02 02:02:10;;;;;;;1.40;0.90;;;-5.60;77.10;;;;;;4974765;28;20072;-70
2022/04/02 02:04:37;;;;;;;1.88;0.90;;;-5.60;77.40;;;;;;4974795;28;20390;-70
2022/04/02 02:07:03;;;;;;;3.13;1.30;;;-5.60;77.40;;;;;;4974682;28;20675;-70
2022/04/02 02:09:29;;;;;;;2.63;1.20;;;-5.60;77.20;;;;;;4974661;28;20030;-70
2022/04/02 02:11:56;;;;;;;3.78;0.88;;;-5.60;77.30;;;;;;4974575;28;20081;-71
2022/04/02 02:14:22;;;;;;;1.48;0.80;;;-5.60;76.90;;;;;;4974802;28;20041;-72
2022/04/02 02:16:48;;;;;;;1.40;1.08;;;-5.60;77.10;;;;;;4974795;28;20102;-72
2022/04/02 02:19:13;;;;;;;2.25;0.90;;;-5.60;77.20;;;;;;4974277;28;20575;-70
2022/04/02 02:21:39;;;;;;;5.78;0.90;;;-5.70;77.20;;;;;;4973754;28;20015;-70
2022/04/02 02:55:34;;;;;;;3.15;1.10;;;-5.50;78.40;;;;;;4973416;28;20081;-74
2022/04/02 02:58:00;;;;;;;12.02;1.70;;;-5.50;79.20;;;;;;4973800;28;20039;-74
2022/04/02 03:00:26;;;;;;;8.60;1.40;;;-5.50;80.00;;;;;;4974025;28;20039;-73
2022/04/02 03:02:51;;;;;;;12.82;1.80;;;-5.50;80.50;;;;;;4973719;28;20023;-73
2022/04/02 03:36:21;;;;;;;8.88;1.58;;;-5.60;87.20;;;;;;6048504;23;20149;-76
2022/04/02 03:38:47;;;;;;;5.63;1.35;;;-5.70;88.20;;;;;;4989622;28;20046;-76
2022/04/02 03:41:13;;;;;;;6.75;1.40;;;-5.80;89.10;;;;;;4992601;28;20159;-76
2022/04/02 03:43:38;;;;;;;2.80;1.30;;;-5.70;88.70;;;;;;4992686;28;20073;-77
2022/04/02 03:48:48;;;;;;;1.27;1.02;;;-5.80;88.20;;;;;;4992863;28;20042;-77
2022/04/02 03:51:14;;;;;;;4.65;1.30;;;-5.80;89.50;;;;;;4992735;28;20421;-77
2022/04/02 03:53:39;;;;;;;1.83;1.20;;;-5.80;90.00;;;;;;4992773;28;20023;-77
2022/04/02 03:56:07;;;;;;;7.65;1.10;;;-5.80;89.60;;;;;;4991112;28;20383;-76
2022/04/02 03:58:32;;;;;;;4.47;1.17;;;-5.70;89.10;;;;;;4992740;28;20355;-76
2022/04/02 04:00:58;;;;;;;9.63;2.10;;;-5.70;88.60;;;;;;4992736;28;20085;-76
2022/04/02 04:03:24;;;;;;;10.70;1.25;;;-5.70;88.00;;;;;;4992712;28;20481;-77
2022/04/02 04:05:50;;;;;;;4.60;1.23;;;-5.60;87.90;;;;;;4992534;28;20128;-78
2022/04/02 04:08:15;;;;;;;4.57;1.00;;;-5.60;87.70;;;;;;4992248;28;20026;-76
2022/04/02 04:10:41;;;;;;;3.10;1.10;;;-5.50;87.30;;;;;;4992867;28;20030;-76
2022/04/02 04:13:07;;;;;;;1.42;1.25;;;-5.50;86.70;;;;;;4992375;28;20430;-75
2022/04/02 04:15:33;;;;;;;2.80;1.33;;;-5.50;86.80;;;;;;4992554;28;20031;-76
2022/04/02 04:17:59;;;;;;;2.63;1.23;;;-5.50;86.90;;;;;;4992556;28;20053;-75
2022/04/02 04:20:25;;;;;;;4.95;1.00;;;-5.40;86.70;;;;;;4992658;28;20390;-76
2022/04/02 04:22:52;;;;;;;7.03;1.00;;;-5.40;87.10;;;;;;4992537;28;20030;-74
2022/04/02 04:25:17;;;;;;;5.68;1.42;;;-5.30;87.60;;;;;;4992669;28;20034;-76
2022/04/02 04:27:43;;;;;;;9.15;1.88;;;-5.30;88.10;;;;;;4992445;28;20098;-75
2022/04/02 04:30:10;;;;;;;11.82;2.50;;;-5.20;89.00;;;;;;4992341;28;20418;-68
2022/04/02 04:32:35;;;;;;;24.38;2.15;;;-5.20;88.70;;;;;;4992447;28;20030;-67
2022/04/02 04:35:02;;;;;;;0.82;0.82;;;-5.20;90.20;;;;;;4992201;28;20073;-66
2022/04/02 04:37:28;;;;;;;4.00;1.15;;;-2.40;99.90;;;;;;4991987;28;20054;-66
2022/04/02 04:39:53;;;;;;;4.80;1.27;;;1.50;99.90;;;;;;4991897;28;20041;-68
2022/04/02 04:42:21;;;;;;;12.18;1.65;;;3.40;99.90;;;;;;4991943;28;20120;-67
2022/04/02 04:44:47;;;;;;;8.95;1.17;;;2.60;99.90;;;;;;4988577;28;20035;-67
2022/04/02 04:47:13;;;;;;;9.30;1.10;;;1.10;99.90;;;;;;4978478;28;20034;-71
2022/04/02 04:49:39;;;;;;;6.15;1.13;;;-0.20;98.20;;;;;;4979795;28;20023;-70
2022/04/02 04:52:05;;;;;;;27.02;1.70;;;-1.20;96.90;;;;;;4984964;28;20088;-71
2022/04/02 04:54:31;;;;;;;18.85;2.58;;;-1.70;96.70;;;;;;4986245;28;20029;-71
2022/04/02 04:56:57;;;;;;;71.28;6.10;;;-2.10;96.00;;;;;;4986789;28;20023;-69
2022/04/02 04:59:22;;;;;;;39.03;4.40;;;-2.30;95.60;;;;;;4986280;28;20494;-77
2022/04/02 05:01:48;;;;;;;34.63;4.53;;;-2.50;94.90;;;;;;4976059;28;20038;-78
2022/04/02 05:04:14;;;;;;;41.17;2.97;;;-2.70;93.10;;;;;;4988200;28;20088;-69
2022/04/02 05:06:41;;;;;;;22.92;3.42;;;-2.90;92.70;;;;;;4989869;28;20110;-76
2022/04/02 05:09:07;;;;;;;26.00;2.08;;;-3.00;92.20;;;;;;4976893;28;20024;-74
2022/04/02 05:11:32;;;;;;;11.05;1.92;;;-3.10;92.30;;;;;;4992897;28;20023;-71
2022/04/02 05:13:59;;;;;;;5.38;1.40;;;-3.20;91.90;;;;;;4981794;28;20034;-70
2022/04/02 05:16:26;;;;;;;5.03;1.40;;;-3.40;91.60;;;;;;4985811;28;20023;-71
2022/04/02 05:18:52;;;;;;;6.15;1.20;;;-3.40;91.80;;;;;;4982584;28;20039;-71
2022/04/02 05:21:18;;;;;;;13.43;1.65;;;-3.40;91.60;;;;;;4983875;28;20060;-71
2022/04/02 05:23:44;;;;;;;28.35;2.83;;;-3.40;92.00;;;;;;4992585;28;20426;-71
2022/04/02 05:26:10;;;;;;;34.40;3.17;;;-3.50;92.30;;;;;;4994853;28;20026;-72
2022/04/02 05:28:36;;;;;;;47.20;4.57;;;-3.50;92.70;;;;;;4995037;28;20027;-69
2022/04/02 05:31:03;;;;;;;26.45;2.42;;;-3.50;92.00;;;;;;4994896;28;20032;-68
2022/04/02 05:33:30;;;;;;;24.27;3.38;;;-3.10;99.90;;;;;;4995161;28;20033;-68
2022/04/02 05:35:56;;;;;;;26.20;2.80;;;-3.10;98.90;;;;;;4995065;28;20034;-68
2022/04/02 05:38:22;;;;;;;47.28;3.33;;;-3.10;95.50;;;;;;4994591;28;20046;-68
2022/04/02 05:40:48;;;;;;;54.00;3.67;;;-3.10;93.90;;;;;;4994826;28;20038;-68
2022/04/02 05:43:13;;;;;;;49.90;3.92;;;-3.10;93.40;;;;;;4994676;28;20480;-68
2022/04/02 05:45:39;;;;;;;32.25;3.97;;;-3.20;93.00;;;;;;4994668;28;20042;-68
2022/04/02 05:48:05;;;;;;;22.85;2.60;;;-3.20;93.20;;;;;;4994704;28;20026;-68
2022/04/02 05:50:31;;;;;;;2.17;1.20;;;-3.20;93.10;;;;;;4994662;28;20029;-69
2022/04/02 05:52:57;;;;;;;3.17;0.90;;;-3.10;93.00;;;;;;4994366;28;20400;-68
2022/04/02 05:55:23;;;;;;;1.17;1.00;;;-3.10;92.50;;;;;;4994476;28;20050;-67
2022/04/02 05:57:49;;;;;;;1.23;1.00;;;-3.20;92.40;;;;;;4993067;28;20121;-69
2022/04/02 06:00:17;;;;;;;1.73;0.90;;;-3.10;92.70;;;;;;4994441;28;20034;-68
2022/04/02 06:02:43;;;;;;;0.90;0.90;;;-3.20;93.00;;;;;;4994488;28;20022;-69
2022/04/02 06:05:12;;;;;;;5.97;1.10;;;-3.10;93.10;;;;;;4994098;28;20034;-68
2022/04/02 06:07:38;;;;;;;2.63;1.02;;;-3.10;93.30;;;;;;4994085;28;20065;-68
2022/04/02 06:10:04;;;;;;;1.15;0.82;;;-3.00;93.40;;;;;;4994109;28;20061;-69
2022/04/02 06:12:31;;;;;;;1.23;0.85;;;-2.80;99.90;;;;;;4994064;28;20426;-76
2022/04/02 06:14:57;;;;;;;0.75;0.75;;;-1.80;99.90;;;;;;4994152;28;20037;-77
2022/04/02 06:17:23;;;;;;;12.38;2.65;;;-1.80;99.90;;;;;;4994332;28;20031;-81
2022/04/02 06:19:49;;;;;;;88.35;27.60;;;-2.00;94.90;;;;;;4987054;28;20057;-69
2022/04/02 06:22:15;;;;;;;58.60;22.80;;;-2.20;93.80;;;;;;4980517;28;20022;-70
2022/04/02 06:24:40;;;;;;;87.68;25.20;;;-2.30;93.80;;;;;;4989722;28;20429;-71
2022/04/02 06:27:06;;;;;;;83.88;29.73;;;-2.40;94.00;;;;;;4979378;28;20037;-71
2022/04/02 06:29:32;;;;;;;71.97;27.92;;;-2.40;94.10;;;;;;4984468;28;20054;-71
2022/04/02 06:31:57;;;;;;;18.40;9.18;;;-2.40;93.80;;;;;;4988497;28;20030;-72
2022/04/02 06:34:23;;;;;;;6.20;4.22;;;-2.40;94.20;;;;;;4996775;28;20025;-73
2022/04/02 06:36:49;;;;;;;5.63;3.67;;;-2.40;94.20;;;;;;4976722;28;20141;-71
2022/04/02 06:39:15;;;;;;;13.45;7.35;;;-2.40;94.60;;;;;;4986058;28;20039;-70
2022/04/02 06:41:41;;;;;;;4.47;2.13;;;-2.30;94.60;;;;;;4981523;28;20033;-69
2022/04/02 06:44:08;;;;;;;4.93;1.38;;;-2.30;94.20;;;;;;4973316;28;20489;-70
2022/04/02 06:46:35;;;;;;;7.35;1.40;;;-2.30;94.40;;;;;;4974374;28;20107;-71
2022/04/02 06:49:00;;;;;;;2.60;1.00;;;-2.30;94.50;;;;;;4987837;28;20355;-70
2022/04/02 06:51:26;;;;;;;3.03;1.05;;;-2.20;94.40;;;;;;4981291;28;20033;-70
2022/04/02 06:53:53;;;;;;;2.88;0.95;;;-2.20;94.50;;;;;;4981250;28;20046;-71
2022/04/02 06:56:19;;;;;;;1.50;1.10;;;-2.10;94.90;;;;;;4988535;28;20034;-71
2022/04/02 06:58:45;;;;;;;1.10;0.95;;;-2.10;95.10;;;;;;4976395;28;20032;-75
2022/04/02 07:01:10;;;;;;;3.83;1.05;;;-2.00;95.40;;;;;;4979276;28;20027;-70
2022/04/02 07:03:37;;;;;;;3.05;0.75;;;-2.00;95.40;;;;;;4973752;28;20031;-70
2022/04/02 07:06:03;;;;;;;1.48;0.90;;;-1.90;95.80;;;;;;4973641;28;20033;-70
2022/04/02 07:08:29;;;;;;;2.40;0.90;;;-1.90;95.90;;;;;;4973331;28;20110;-69
2022/04/02 07:10:55;;;;;;;1.67;1.00;;;-1.80;95.90;;;;;;4974046;28;20102;-69
2022/04/02 07:13:20;;;;;;;2.83;1.00;;;-1.80;96.50;;;;;;4973434;28;20019;-70
2022/04/02 07:15:46;;;;;;;1.17;1.10;;;-1.70;96.60;;;;;;4973595;28;20038;-70
2022/04/02 07:18:12;;;;;;;6.32;4.35;;;-1.70;96.40;;;;;;4973387;28;20031;-69
2022/04/02 07:20:39;;;;;;;1.83;1.17;;;-1.70;96.70;;;;;;4973425;28;20090;-69
2022/04/02 07:23:09;;;;;;;0.80;0.80;;;-1.60;96.80;;;;;;4973274;28;20027;-69
2022/04/02 07:25:40;;;;;;;0.80;0.80;;;-1.60;96.70;;;;;;4973536;28;20077;-69
2022/04/02 07:28:07;;;;;;;1.48;1.10;;;-1.60;97.00;;;;;;4973257;28;20023;-69
2022/04/02 07:30:34;;;;;;;4.00;0.90;;;-1.50;96.90;;;;;;4972229;28;20074;-69
2022/04/02 07:33:00;;;;;;;0.93;0.80;;;-1.50;97.10;;;;;;4973376;28;20023;-69
2022/04/02 07:35:35;;;;;;;1.17;0.82;;;-1.40;97.50;;;;;;4973598;28;20533;-69
2022/04/02 07:38:09;;;;;;;1.10;0.77;;;-1.40;97.50;;;;;;4972762;28;20042;-68
2022/04/02 07:40:49;;;;;;;1.13;0.80;;;-1.30;97.30;;;;;;4973555;28;20039;-68
2022/04/02 07:43:22;;;;;;;2.33;0.80;;;-1.30;97.40;;;;;;4973106;28;20434;-68
2022/04/02 07:46:01;;;;;;;0.85;0.85;;;-1.20;98.10;;;;;;4973164;28;20038;-73
2022/04/02 07:48:30;;;;;;;0.95;0.88;;;-1.10;99.20;;;;;;4988874;28;20034;-72
2022/04/02 07:50:56;;;;;;;2.25;1.00;;;-1.00;99.90;;;;;;4992692;28;20697;-72
2022/04/02 07:53:23;;;;;;;5.00;0.90;;;-0.80;99.90;;;;;;4991696;28;20026;-72
2022/04/02 07:55:57;;;;;;;0.85;0.80;;;-0.70;99.90;;;;;;4992631;28;20069;-73
2022/04/02 07:58:28;;;;;;;3.47;0.75;;;-0.60;98.40;;;;;;4992582;28;20042;-73
2022/04/02 08:00:55;;;;;;;1.30;0.80;;;-0.60;98.40;;;;;;4992495;28;20413;-73
2022/04/02 08:03:23;;;;;;;2.67;0.70;;;-0.50;97.90;;;;;;4992362;28;20560;-73
2022/04/02 08:05:49;;;;;;;8.80;1.10;;;-0.40;97.50;;;;;;4992715;28;20050;-70
2022/04/02 08:08:15;;;;;;;7.45;1.38;;;-0.20;99.90;;;;;;4992569;28;20033;-72
2022/04/02 08:10:46;;;;;;;4.53;0.98;;;1.30;99.90;;;;;;4992461;28;20524;-71
2022/04/02 08:13:15;;;;;;;3.75;0.70;;;3.00;99.90;;;;;;4991967;28;20050;-72
2022/04/02 08:15:41;;;;;;;5.88;0.70;;;2.40;91.20;;;;;;4992213;28;20370;-72
2022/04/02 08:18:07;;;;;;;1.20;0.80;;;1.70;90.30;;;;;;4992015;28;20550;-72
2022/04/02 08:20:33;;;;;;;2.20;0.70;;;1.20;90.60;;;;;;4994043;28;20039;-72
2022/04/02 08:23:01;;;;;;;1.75;0.80;;;0.90;91.60;;;;;;4996025;28;20069;-72
2022/04/02 08:25:27;;;;;;;1.45;0.70;;;0.70;92.40;;;;;;4996218;28;20034;-72
2022/04/02 08:28:13;;;;;;;1.73;0.80;;;0.60;93.10;;;;;;4995976;28;20033;-72
2022/04/02 08:30:53;;;;;;;1.42;0.63;;;0.50;93.80;;;;;;4996156;28;20026;-72
2022/04/02 08:33:24;;;;;;;;;;;0.60;93.90;;;;;;4996224;28;20022;-72
2022/04/02 08:36:24;;;;;;;31.85;1.70;;;0.50;94.60;;;;;;4994695;28;20389;-72
2022/04/02 08:38:54;;;;;;;0.57;0.57;;;0.70;95.00;;;;;;4996023;28;20089;-72
2022/04/02 08:41:41;;;;;;;3.78;0.73;;;0.70;94.30;;;;;;4996035;28;20053;-72
2022/04/02 08:44:25;;;;;;;6.97;1.13;;;0.80;94.30;;;;;;4995011;28;20027;-71
2022/04/02 08:47:13;;;;;;;3.88;0.75;;;2.10;99.90;;;;;;4995996;28;20029;-71
2022/04/02 08:49:41;;;;;;;6.30;1.10;;;2.20;96.60;;;;;;4995630;28;20026;-72
2022/04/02 08:52:20;;;;;;;1.70;0.70;;;1.90;94.20;;;;;;4995783;28;20030;-72
2022/04/02 08:55:13;;;;;;;3.90;0.90;;;1.80;94.10;;;;;;4995104;28;20521;-73
2022/04/02 08:57:53;;;;;;;0.82;0.60;;;2.10;97.20;;;;;;4995247;28;20436;-73
2022/04/02 09:00:24;;;;;;;3.70;0.80;;;2.00;93.40;;;;;;4994395;28;20389;-73
2022/04/02 09:02:53;;;;;;;0.50;0.50;;;1.80;92.90;;;;;;4990671;28;20030;-73
2022/04/02 09:05:53;;;;;;;3.70;0.70;;;1.70;92.90;;;;;;4979084;28;20034;-73
2022/04/02 09:08:26;;;;;;;1.10;0.80;;;1.60;93.40;;;;;;4976011;28;20038;-73
2022/04/02 09:11:16;;;;;;;6.53;1.25;;;1.70;93.70;;;;;;4975945;28;20109;-70
2022/04/02 09:14:06;;;;;;;0.90;0.60;;;1.60;93.30;;;;;;4980027;28;20026;-67
2022/04/02 09:16:49;;;;;;;1.33;0.63;;;1.60;93.70;;;;;;4976048;28;20023;-69
2022/04/02 09:19:37;;;;;;;18.30;1.58;;;1.60;93.50;;;;;;4975469;28;20557;-69
2022/04/02 09:22:24;;;;;;;4.57;0.80;;;1.70;94.10;;;;;;4975785;28;20037;-69
2022/04/02 09:24:56;;;;;;;0.95;0.40;;;1.80;93.90;;;;;;4975921;28;20037;-70
2022/04/02 09:27:40;;;;;;;0.57;0.50;;;1.80;93.50;;;;;;4975511;28;20029;-69
2022/04/02 09:31:07;;;;;;;2.05;0.70;;;1.80;93.80;;;;;;4975407;28;20027;-69
2022/04/02 09:33:48;;;;;;;5.50;0.60;;;1.90;93.80;;;;;;4910400;29;20064;-69
2022/04/02 09:36:23;;;;;;;1.33;0.60;;;2.00;94.20;;;;;;4966088;28;20038;-78
2022/04/02 09:39:04;;;;;;;9.13;0.70;;;2.20;96.50;;;;;;4978859;28;20524;-69
2022/04/02 09:42:09;;;;;;;0.70;0.57;;;2.40;94.40;;;;;;4985122;28;20046;-68
2022/04/02 09:45:21;;;;;;;0.55;0.40;;;2.50;94.30;;;;;;4954321;28;20100;-70
2022/04/02 09:48:07;;;;;;;0.88;0.43;;;2.50;93.90;;;;;;4975586;28;20039;-72
2022/04/02 09:50:34;;;;;;;0.60;0.60;;;2.60;93.70;;;;;;4984786;28;20046;-69
2022/04/02 09:53:27;;;;;;;2.70;0.55;;;2.70;93.30;;;;;;4983493;28;20019;-71
2022/04/02 09:56:20;;;;;;;5.22;0.65;;;2.70;92.90;;;;;;4970356;28;20035;-69
2022/04/02 09:59:04;;;;;;;3.03;0.63;;;2.80;92.90;;;;;;4981264;28;20554;-69
2022/04/02 10:01:54;;;;;;;6.57;0.60;;;2.80;92.90;;;;;;4986935;28;20061;-70
2022/04/02 10:04:40;;;;;;;0.43;0.43;;;2.90;92.80;;;;;;4982646;28;20086;-69
2022/04/02 10:07:31;;;;;;;1.20;0.63;;;2.90;92.50;;;;;;4986248;28;20757;-73
2022/04/02 10:10:00;;;;;;;2.67;0.70;;;2.90;92.30;;;;;;4985732;28;20547;-73
2022/04/02 10:12:29;;;;;;;2.28;0.65;;;2.90;92.40;;;;;;4988397;28;20027;-72
2022/04/02 10:14:59;;;;;;;1.38;0.50;;;2.90;92.20;;;;;;4983823;28;20029;-73
2022/04/02 10:17:28;;;;;;;1.75;0.60;;;2.80;91.70;;;;;;4974514;28;20054;-72
2022/04/02 10:19:57;;;;;;;11.43;1.17;;;2.80;91.90;;;;;;4974420;28;20070;-73
2022/04/02 10:22:42;;;;;;;1.80;0.50;;;2.80;92.00;;;;;;4974732;28;20434;-73
2022/04/02 10:25:11;;;;;;;2.05;0.68;;;2.80;92.10;;;;;;4974535;28;20510;-73
2022/04/02 10:27:39;;;;;;;1.20;0.45;;;2.80;91.90;;;;;;4977174;28;20034;-74
2022/04/02 10:30:07;;;;;;;26.13;3.20;;;2.90;92.00;;;;;;4983613;28;20390;-74
2022/04/02 10:32:39;;;;;;;0.75;0.55;;;2.90;92.10;;;;;;4983796;28;20026;-73
2022/04/02 10:35:07;;;;;;;3.42;0.70;;;2.90;91.80;;;;;;4981808;28;20026;-74
2022/04/02 10:38:04;;;;;;;25.05;1.75;;;3.00;91.40;;;;;;4982434;28;20498;-74
2022/04/02 10:40:31;;;;;;;9.38;0.90;;;3.00;90.90;;;;;;4981330;28;20046;-74
2022/04/02 10:43:06;;;;;;;1.15;0.52;;;3.10;91.20;;;;;;4983845;28;20019;-80
2022/04/02 10:45:36;;;;;;;5.03;0.70;;;3.20;99.90;;;;;;4983948;28;20381;-72
2022/04/02 10:48:05;;;;;;;0.65;0.57;;;7.00;99.90;;;;;;4985188;28;20030;-77
2022/04/02 10:50:32;;;;;;;3.47;0.47;;;9.70;84.60;;;;;;4981385;28;20022;-71
2022/04/02 10:53:01;;;;;;;1.80;0.60;;;8.40;69.60;;;;;;4982044;28;20030;-72
2022/04/02 10:55:27;;;;;;;6.63;0.70;;;7.40;78.40;;;;;;4984285;28;20022;-70
2022/04/02 10:57:55;;;;;;;0.30;0.30;;;6.50;72.20;;;;;;4981093;28;20509;-70
2022/04/02 11:00:21;;;;;;;0.70;0.45;;;5.90;73.90;;;;;;4988434;28;20045;-70
2022/04/02 11:02:50;;;;;;;0.95;0.60;;;5.40;76.40;;;;;;4983133;28;20018;-70
2022/04/02 11:05:17;;;;;;;3.85;0.50;;;5.20;77.10;;;;;;4981249;28;20033;-73
2022/04/02 11:07:49;;;;;;;5.05;0.50;;;5.00;78.00;;;;;;4979117;28;20034;-73
2022/04/02 11:10:22;;;;;;;3.90;0.50;;;4.80;77.30;;;;;;4981798;28;20169;-73
2022/04/02 11:12:58;;;;;;;0.45;0.45;;;4.70;77.30;;;;;;4983168;28;20045;-74
2022/04/02 11:15:24;;;;;;;1.48;0.60;;;4.60;77.00;;;;;;4982176;28;20378;-74
2022/04/02 11:17:57;;;;;;;38.35;6.55;;;4.60;78.10;;;;;;4982566;28;20034;-74
2022/04/02 11:20:28;;;;;;;5.53;1.80;;;4.60;79.10;;;;;;4982083;28;20038;-73
2022/04/02 11:23:01;;;;;;;1.52;0.60;;;4.60;83.00;;;;;;4982154;28;20037;-73
2022/04/02 11:25:32;;;;;;;43.72;6.53;;;4.50;81.40;;;;;;4982660;28;20538;-72
2022/04/02 11:28:10;;;;;;;3.03;0.90;;;4.60;83.10;;;;;;4981735;28;20022;-73
2022/04/02 11:30:40;;;;;;;30.80;7.28;;;4.50;83.70;;;;;;4981620;28;20086;-73
2022/04/02 11:33:12;;;;;;;5.07;1.67;;;4.50;83.40;;;;;;4982939;28;20039;-73
2022/04/02 11:35:43;;;;;;;6.13;0.77;;;4.40;87.20;;;;;;4983537;28;20065;-72
2022/04/02 11:38:17;;;;;;;2.17;0.70;;;4.40;86.20;;;;;;4985416;28;20153;-73
2022/04/02 11:40:52;;;;;;;0.85;0.55;;;4.30;84.10;;;;;;4973079;28;20042;-72
2022/04/02 11:43:18;;;;;;;1.67;0.60;;;4.20;82.40;;;;;;4975670;28;20058;-73
2022/04/02 11:45:46;;;;;;;7.28;1.27;;;4.30;84.90;;;;;;4984748;28;20023;-73
2022/04/02 11:48:14;;;;;;;3.45;0.60;;;4.40;86.40;;;;;;4985616;28;20027;-72
2022/04/02 11:50:45;;;;;;;2.10;0.60;;;4.50;85.20;;;;;;4988909;28;20053;-73
2022/04/02 11:53:14;;;;;;;3.90;0.60;;;5.00;99.90;;;;;;4987175;28;20481;-73
2022/04/02 11:55:41;;;;;;;0.40;0.40;;;5.60;90.50;;;;;;4990169;28;20121;-73
2022/04/02 11:58:12;;;;;;;0.40;0.40;;;5.40;83.00;;;;;;4983119;28;20394;-73
2022/04/02 12:00:44;;;;;;;1.02;0.50;;;5.00;80.20;;;;;;4987175;28;20093;-73
2022/04/02 12:03:24;;;;;;;0.93;0.60;;;4.80;79.30;;;;;;4984022;28;20034;-73
2022/04/02 12:05:50;;;;;;;0.60;0.52;;;4.70;85.30;;;;;;4989250;28;20038;-72
2022/04/02 12:08:32;;;;;;;0.60;0.60;;;4.80;79.10;;;;;;4988039;28;20035;-70
2022/04/02 12:10:59;;;;;;;0.90;0.50;;;4.60;75.50;;;;;;4987156;28;20052;-70
2022/04/02 12:13:26;;;;;;;0.82;0.80;;;4.50;75.50;;;;;;4985625;28;20023;-70
2022/04/02 12:16:09;;;;;;;1.40;0.57;;;4.40;75.10;;;;;;4985317;28;20081;-70
2022/04/02 12:18:51;;;;;;;0.40;0.40;;;4.30;75.00;;;;;;4986895;28;20918;-71
2022/04/02 12:21:17;;;;;;;0.47;0.47;;;4.30;75.00;;;;;;4986842;28;20045;-71
2022/04/02 12:23:56;;;;;;;0.50;0.45;;;4.20;75.20;;;;;;4985240;28;20018;-70
2022/04/02 12:26:24;;;;;;;0.40;0.40;;;4.20;74.70;;;;;;4985254;28;20382;-70
2022/04/02 12:28:57;;;;;;;0.40;0.40;;;4.20;74.60;;;;;;4987591;28;20037;-70
2022/04/02 12:31:23;;;;;;;7.95;0.60;;;4.20;73.60;;;;;;4981851;28;20026;-70
2022/04/02 12:33:53;;;;;;;3.35;0.60;;;4.20;74.50;;;;;;4986695;28;20089;-71
2022/04/02 12:36:32;;;;;;;0.60;0.60;;;5.70;99.90;;;;;;4984232;28;20057;-72
2022/04/02 12:39:09;;;;;;;1.90;0.50;;;6.50;76.50;;;;;;4985644;28;20316;-69
2022/04/02 12:41:46;;;;;;;2.72;0.65;;;5.90;71.80;;;;;;4986059;28;20034;-70
2022/04/02 12:44:17;;;;;;;2.50;0.73;;;5.50;71.00;;;;;;4987103;28;20026;-71
2022/04/02 12:46:42;;;;;;;;;;;5.30;70.40;;;;;;4986383;28;20069;-69
2022/04/02 12:49:08;;;;;;;3.95;0.60;;;5.20;69.60;;;;;;4985676;28;19909;-71
2022/04/02 12:51:34;;;;;;;1.85;0.52;;;5.20;70.70;;;;;;4985086;28;20061;-72
2022/04/02 12:54:03;;;;;;;7.07;1.30;;;5.20;70.30;;;;;;4979422;28;20497;-72
2022/04/02 12:56:38;;;;;;;0.50;0.50;;;5.20;69.80;;;;;;4978795;28;20119;-71
2022/04/02 12:59:19;;;;;;;6.40;0.60;;;5.20;69.00;;;;;;4987991;28;20508;-72
2022/04/02 13:01:46;;;;;;;1.45;0.50;;;5.10;72.10;;;;;;4986045;28;20046;-70
2022/04/02 13:04:12;;;;;;;1.55;0.55;;;4.70;78.20;;;;;;4985764;28;20032;-69
2022/04/02 13:06:44;;;;;;;0.38;0.38;;;4.40;84.30;;;;;;4983830;28;20549;-68
2022/04/02 13:09:21;;;;;;;0.75;0.55;;;4.00;87.80;;;;;;4985708;28;20413;-68
2022/04/02 13:11:53;;;;;;;12.40;0.93;;;3.80;90.70;;;;;;4983727;28;20034;-68
2022/04/02 13:14:21;;;;;;;1.08;0.40;;;3.60;94.80;;;;;;4984536;28;20509;-69
2022/04/02 13:16:50;;;;;;;0.90;0.50;;;3.50;95.70;;;;;;4984087;28;20027;-69
2022/04/02 13:22:15;;;;;;;1.60;0.50;;;3.30;93.10;;;;;;4983848;28;20153;-69
2022/04/02 13:24:58;;;;;;;0.93;0.50;;;3.30;92.10;;;;;;4975498;28;20041;-68
2022/04/02 13:27:32;;;;;;;1.75;0.60;;;3.40;92.80;;;;;;4993505;28;20090;-68
2022/04/02 13:30:14;;;;;;;0.95;0.50;;;3.40;91.70;;;;;;4992096;28;20026;-69
2022/04/02 13:32:54;;;;;;;2.08;0.52;;;3.60;91.00;;;;;;4985384;28;20105;-69
2022/04/02 13:35:30;;;;;;;0.80;0.55;;;3.70;87.80;;;;;;4981938;28;20080;-69
2022/04/02 13:38:17;;;;;;;1.65;0.70;;;3.70;85.30;;;;;;4977564;28;20062;-71
2022/04/02 13:40:46;;;;;;;0.63;0.60;;;3.80;82.70;;;;;;4975079;28;20034;-70
2022/04/02 13:43:29;;;;;;;0.63;0.50;;;3.90;81.60;;;;;;4975352;28;20018;-70
2022/04/02 13:46:01;;;;;;;2.75;0.60;;;3.90;79.20;;;;;;4975166;28;20250;-70
2022/04/02 13:48:28;;;;;;;0.98;0.60;;;4.00;79.20;;;;;;4975169;28;20057;-70
2022/04/02 13:51:10;;;;;;;0.50;0.43;;;4.00;77.90;;;;;;4975148;28;20041;-70
2022/04/02 13:53:38;;;;;;;0.43;0.40;;;4.00;76.20;;;;;;4975003;28;20553;-70
2022/04/02 13:56:12;;;;;;;0.70;0.47;;;4.10;74.60;;;;;;4975005;28;20506;-70
2022/04/02 13:58:46;;;;;;;4.32;0.47;;;4.10;72.80;;;;;;4975032;28;20438;-70
2022/04/02 14:01:16;;;;;;;0.80;0.45;;;4.20;70.80;;;;;;4975100;28;20031;-70
2022/04/02 14:03:48;;;;;;;1.38;0.32;;;4.20;69.80;;;;;;4973673;28;20406;-70
2022/04/02 14:06:15;;;;;;;1.08;0.50;;;4.20;68.20;;;;;;4985796;28;20046;-69
2022/04/02 14:08:54;;;;;;;0.50;0.50;;;4.20;67.50;;;;;;4975987;28;20041;-70
2022/04/02 14:11:22;;;;;;;0.40;0.40;;;4.20;66.10;;;;;;4974789;28;20110;-70
2022/04/02 14:14:06;;;;;;;0.88;0.50;;;4.10;65.50;;;;;;4976656;28;20062;-70
2022/04/02 14:16:40;;;;;;;2.20;0.50;;;4.10;63.80;;;;;;4974961;28;20022;-70